Flight Number: EUR1498 Duration: 0:45
Departure: Gatwick Airport (EGKK) at 07:45 Distance: 172 Nm
Arrival: Leeds Bradford (EGNM) at 08:30 Equipment: CRJ700

Weather Information
London / Gatwick Airport, United Kingdom (EGKK) 51-09N 000-11W 0M Oct 17, 2018 - 11:20 PM EDT / 2018.10.18 0320 UTC
Wind: from the NNE (030 degrees) at 7 MPH (6 KT):0
Visibility: 5 mile(s):0 Temperature: 51 F (11 C) Dew Point: 50 F (10 C) Relative Humidity: 93% Pressure (altimeter): 30.27 in. Hg (1025 hPa)
ob: EGKK 180320Z 03006KT 9000 NSC 11/10 Q1025 cycle: 3
Sunrise: 06:33 Sunset: 16:57 (UTC)

Leeds And Bradford, United Kingdom (EGNM) 53-52N 001-39W Oct 17, 2018 - 11:20 PM EDT / 2018.10.18 0320 UTC
Wind: from the WNW (290 degrees) at 7 MPH (6 KT):0
Visibility: greater than 7 mile(s):0 Temperature: 41 F (5 C) Dew Point: 37 F (3 C) Relative Humidity: 86% Pressure (altimeter): 30.33 in. Hg (1027 hPa)
ob: EGNM 180320Z 29006KT CAVOK 05/03 Q1027 cycle: 3
Sunrise: 06:44 Sunset: 16:58 (UTC)

TAF:2018/10/17 18:09 TAF TAF EGNM 171656Z 1718/1818 28006KT 9999 SCT020 PROB30 1802/1809 8000

Previous Pireps for this route
Date Aircraft Flight time Fuel used Landing rate On time
2015-05-11MD-8101.157987-451Charter
2015-05-15B73700.516602-171Charter
2015-05-19CRJ7000.3821660Yes
2015-05-26CRJ7000.5020190Yes
2015-05-31CRJ7000.4021210Yes
2015-06-02CRJ7000.3719100Yes
2015-06-15CRJ7000.3719140Yes
2015-06-30CRJ7000.4022530Yes
2015-07-15CRJ7000.3519120No
2015-07-16CRJ7000.4324510Yes
2016-01-16CRJ7000.3623170Yes
2016-04-16CRJ7000.4019720Yes
2017-08-06CRJ7000.552509-1016No
(pireps marked green are flown by you)

Route map